createdAt,value
2023-05-15T06:44:52.915Z,5.70
2023-05-15T19:27:18.178Z,9.87
2023-05-15T19:29:45.943Z,10.27
2023-05-15T19:32:13.786Z,10.53
2023-05-15T19:34:41.904Z,10.50
2023-05-15T19:37:09.614Z,10.37
2023-05-15T19:39:37.305Z,11.10
2023-05-15T19:42:05.220Z,11.10
2023-05-15T19:44:34.287Z,10.40
2023-05-15T19:47:01.954Z,11.20
2023-05-15T19:49:29.676Z,10.47
2023-05-15T19:51:57.404Z,11.40
2023-05-15T19:54:25.134Z,11.20
2023-05-15T19:56:52.844Z,11.63
2023-05-15T19:59:20.671Z,11.27
2023-05-15T20:01:49.725Z,11.30
2023-05-15T20:04:17.457Z,12.17
2023-05-15T20:06:45.133Z,12.23
2023-05-15T20:09:12.878Z,12.13
2023-05-15T20:11:40.632Z,11.93
2023-05-15T20:14:08.282Z,12.60
2023-05-15T20:16:36.365Z,11.73
2023-05-15T20:19:06.090Z,11.37
2023-05-15T20:21:33.983Z,11.53
2023-05-15T20:24:01.747Z,12.00
2023-05-15T20:26:29.581Z,12.00
2023-05-15T20:28:57.439Z,10.90
2023-05-15T20:31:25.192Z,11.90
2023-05-15T20:33:52.951Z,11.50
2023-05-15T20:36:22.782Z,12.17
2023-05-15T20:38:50.566Z,12.00
2023-05-15T20:41:18.907Z,12.73
2023-05-15T20:43:47.541Z,14.23
2023-05-15T20:46:15.534Z,14.00
2023-05-15T20:48:43.474Z,12.93
2023-05-15T20:51:11.240Z,13.90
2023-05-15T20:53:40.648Z,14.70
2023-05-15T20:56:08.493Z,14.90
2023-05-15T20:58:36.289Z,17.37
2023-05-15T21:01:04.110Z,17.77
2023-05-15T21:03:31.814Z,17.37
2023-05-15T21:05:59.642Z,20.00
2023-05-15T21:08:28.552Z,18.90
2023-05-15T21:10:57.731Z,19.30
2023-05-15T21:13:27.575Z,18.93
2023-05-15T21:15:55.292Z,20.50
2023-05-15T21:18:23.928Z,19.60
2023-05-15T21:20:51.685Z,19.07
2023-05-15T21:23:21.763Z,18.63
2023-05-15T21:25:49.597Z,19.37
2023-05-15T21:28:18.655Z,18.97
2023-05-15T21:30:46.564Z,18.67
2023-05-15T21:33:14.237Z,18.20
2023-05-15T21:35:42.058Z,18.30
2023-05-15T21:38:09.766Z,19.80
2023-05-15T21:40:37.683Z,19.50
2023-05-15T21:43:05.440Z,17.80
2023-05-15T21:45:34.626Z,18.20
2023-05-15T21:48:02.737Z,17.27
2023-05-15T21:50:30.422Z,17.60
2023-05-15T21:52:58.137Z,18.10
2023-05-15T21:55:26.213Z,17.60
2023-05-15T21:57:54.085Z,17.53
2023-05-15T22:00:21.912Z,16.83
2023-05-15T22:02:51.254Z,15.20
2023-05-15T22:05:19.136Z,17.87
2023-05-15T22:07:46.916Z,15.70
2023-05-15T22:10:16.537Z,16.27
2023-05-15T22:12:44.754Z,15.37
2023-05-15T22:15:14.453Z,16.20
2023-05-15T22:17:42.300Z,16.37
2023-05-15T22:20:13.309Z,16.00
2023-05-15T22:22:42.988Z,15.97
2023-05-15T22:25:11.084Z,17.10
2023-05-15T22:27:38.903Z,16.80
2023-05-15T22:30:08.623Z,17.23
2023-05-15T22:32:36.332Z,18.40
2023-05-15T22:35:04.581Z,18.10
2023-05-15T22:37:33.711Z,18.50
2023-05-15T22:40:01.673Z,20.17
2023-05-15T22:42:29.473Z,18.90
2023-05-15T22:44:57.875Z,21.87
2023-05-15T22:47:26.184Z,21.03
2023-05-15T22:49:54.033Z,22.07
2023-05-15T22:52:21.938Z,22.40
2023-05-15T22:54:51.076Z,23.87
2023-05-15T22:57:19.019Z,24.60
2023-05-15T22:59:46.788Z,24.07
2023-05-15T23:02:14.580Z,26.03
2023-05-15T23:04:43.415Z,26.33
2023-05-15T23:07:11.117Z,28.63
2023-05-15T23:09:38.791Z,28.23
2023-05-15T23:12:08.527Z,27.47
2023-05-15T23:14:36.188Z,29.40
2023-05-15T23:17:04.131Z,29.97
2023-05-15T23:19:31.934Z,29.13
2023-05-15T23:21:59.618Z,31.47
2023-05-15T23:24:27.299Z,30.73
2023-05-15T23:26:55.094Z,31.27
2023-05-15T23:29:24.446Z,31.03
2023-05-15T23:31:52.327Z,31.17
2023-05-15T23:34:19.978Z,31.20
2023-05-15T23:36:47.681Z,30.47
2023-05-15T23:39:15.919Z,31.23
2023-05-15T23:41:43.566Z,30.23
2023-05-15T23:44:11.313Z,32.83
2023-05-15T23:46:40.345Z,28.60
2023-05-15T23:49:08.054Z,28.63
2023-05-15T23:51:35.865Z,30.87
2023-05-15T23:54:03.598Z,29.80
2023-05-15T23:56:31.613Z,27.93
2023-05-15T23:58:59.270Z,29.70
